Laveen, Arizona
Current Conditions -  °F | °C
As of 9:51 AM on Tuesday 21 Oct 2014 (Local Time) from KPHX Reporting Station
Broken Clouds Broken Clouds  
Wind Chill: 81°   Ceiling: 25000
Heat Index: 81°   Visibility: 10mi
Dew Point: 52°   Wind: 8mph
Humidity: 36%   Direction: 100°E
Pressure: 29.9"   Gusts: NA
Location:  33.36°N, 112.17°W
Report Text: KPHX 211651Z 10007KT 10SM FEW220 BKN250 27/11 A2990 RMK AO2 SLP109 T02720111
Loading
Personal Weather Stations






























Interactive Weather Map
Tropical Storm Tracking
New forecast layout! Learn more

10-Day Weather Forecast

Advertisements
Track Severe Weather on mobile